Time;durP1;ratioP1;P1;durP2;ratioP2;P2;SDS_P1;SDS_P2;PMS_P1;PMS_P2;Temp;Humidity;BMP_temperature;BMP_pressure;BME280_temperature;BME280_humidity;BME280_pressure;Samples;Min_cycle;Max_cycle;Signal;HPM_P1;HPM_P2
2021/04/30 00:00:04;;;;;;;5.97;5.21;;;;;;;;;;335088;158;857343;-61
2021/04/30 00:01:06;;;;;;;8.36;6.27;;;;;;;;;;331651;160;859854;-60
2021/04/30 00:02:08;;;;;;;8.52;6.15;;;;;;;;;;335757;157;857449;-60
2021/04/30 00:03:09;;;;;;;7.00;6.01;;;;;;;;;;332965;158;860248;-61
2021/04/30 00:04:31;;;;;;;8.01;5.56;;;;;;;;;;335043;159;865100;-61
2021/04/30 00:05:32;;;;;;;10.12;4.86;;;;;;;;;;338886;155;858144;-61
2021/04/30 00:06:34;;;;;;;8.99;5.90;;;;;;;;;;342866;157;857129;-61
2021/04/30 00:07:36;;;;;;;9.19;5.41;;;;;;;;;;342537;156;857457;-60
2021/04/30 00:08:39;;;;;;;7.84;5.18;;;;;;;;;;337858;157;857401;-61
2021/04/30 00:09:40;;;;;;;9.20;5.60;;;;;;;;;;338876;157;857411;-61
2021/04/30 00:10:43;;;;;;;6.76;5.51;;;;;;;;;;339775;157;857794;-60
2021/04/30 00:11:48;;;;;;;8.02;6.15;;;;;;;;;;340162;155;858338;-60
2021/04/30 00:12:49;;;;;;;10.66;6.36;;;;;;;;;;341369;157;858355;-60
2021/04/30 00:13:50;;;;;;;7.84;5.64;;;;;;;;;;341539;155;859940;-60
2021/04/30 00:14:52;;;;;;;9.45;5.73;;;;;;;;;;335503;157;866672;-60
2021/04/30 00:15:53;;;;;;;8.36;5.55;;;;;;;;;;341093;155;865038;-62
2021/04/30 00:16:55;;;;;;;10.66;6.41;;;;;;;;;;340785;155;857360;-60
2021/04/30 00:17:57;;;;;;;8.74;4.86;;;;;;;;;;338986;157;866847;-61
2021/04/30 00:18:59;;;;;;;10.06;6.17;;;;;;;;;;340112;155;865920;-60
2021/04/30 00:20:01;;;;;;;11.39;6.24;;;;;;;;;;338208;157;859474;-60
2021/04/30 00:21:03;;;;;;;9.79;5.94;;;;;;;;;;340160;155;865621;-60
2021/04/30 00:22:04;;;;;;;8.39;5.77;;;;;;;;;;340094;155;859951;-60
2021/04/30 00:23:12;;;;;;;9.53;5.93;;;;;;;;;;340067;157;858399;-60
2021/04/30 00:24:11;;;;;;;9.89;6.48;;;;;;;;;;334828;158;857385;-61
2021/04/30 00:25:12;;;;;;;7.66;5.93;;;;;;;;;;339681;156;858070;-61
2021/04/30 00:26:15;;;;;;;6.49;4.93;;;;;;;;;;338580;158;860083;-60
2021/04/30 00:27:16;;;;;;;9.84;5.85;;;;;;;;;;336871;157;862297;-60
2021/04/30 00:28:18;;;;;;;7.27;5.77;;;;;;;;;;340581;155;857557;-60
2021/04/30 00:29:20;;;;;;;7.81;5.29;;;;;;;;;;339779;157;858008;-60
2021/04/30 00:30:22;;;;;;;7.04;5.63;;;;;;;;;;337489;155;866657;-61
2021/04/30 00:31:24;;;;;;;6.86;5.08;;;;;;;;;;341153;157;858890;-61
2021/04/30 00:32:25;;;;;;;8.34;5.40;;;;;;;;;;340632;157;857836;-61
2021/04/30 00:33:27;;;;;;;6.29;4.79;;;;;;;;;;341587;155;857379;-63
2021/04/30 00:34:28;;;;;;;7.67;4.83;;;;;;;;;;341129;157;857333;-62
2021/04/30 00:35:30;;;;;;;10.04;5.79;;;;;;;;;;341855;157;857369;-61
2021/04/30 00:36:32;;;;;;;6.66;4.67;;;;;;;;;;337873;155;857474;-60
2021/04/30 00:37:33;;;;;;;10.43;6.55;;;;;;;;;;336989;157;865338;-60
2021/04/30 00:38:35;;;;;;;6.57;5.02;;;;;;;;;;341657;155;859372;-60
2021/04/30 00:39:37;;;;;;;6.40;5.80;;;;;;;;;;341348;155;859172;-60
2021/04/30 00:40:39;;;;;;;7.63;6.17;;;;;;;;;;341027;155;857594;-60
2021/04/30 00:41:42;;;;;;;6.31;4.96;;;;;;;;;;339280;157;859618;-60
2021/04/30 00:42:44;;;;;;;7.03;5.11;;;;;;;;;;341159;157;866439;-61
2021/04/30 00:43:45;;;;;;;9.21;5.13;;;;;;;;;;341382;157;858991;-60
2021/04/30 00:44:47;;;;;;;8.24;6.16;;;;;;;;;;337885;155;858926;-61
2021/04/30 00:45:52;;;;;;;10.84;6.04;;;;;;;;;;340777;155;858290;-60
2021/04/30 00:46:52;;;;;;;11.17;6.28;;;;;;;;;;340650;157;857324;-60
2021/04/30 00:47:53;;;;;;;7.14;5.86;;;;;;;;;;336846;157;867258;-61
2021/04/30 00:48:55;;;;;;;8.72;6.09;;;;;;;;;;339723;157;858826;-60
2021/04/30 00:49:59;;;;;;;8.79;5.99;;;;;;;;;;339700;155;865521;-61
2021/04/30 00:51:01;;;;;;;7.05;5.35;;;;;;;;;;341014;157;868906;-61
2021/04/30 00:52:03;;;;;;;6.89;5.14;;;;;;;;;;341400;155;864829;-61
2021/04/30 00:53:04;;;;;;;9.76;5.83;;;;;;;;;;339515;155;858572;-61
2021/04/30 00:54:06;;;;;;;8.01;5.21;;;;;;;;;;336910;157;857477;-58
2021/04/30 00:55:12;;;;;;;7.02;5.19;;;;;;;;;;340754;157;859088;-60
2021/04/30 00:56:15;;;;;;;6.45;5.09;;;;;;;;;;337145;157;857468;-60
2021/04/30 00:57:17;;;;;;;8.79;6.32;;;;;;;;;;340349;157;857868;-60
2021/04/30 00:58:19;;;;;;;8.76;6.31;;;;;;;;;;341806;155;865111;-60
2021/04/30 00:59:20;;;;;;;10.17;5.97;;;;;;;;;;341340;157;866955;-59
2021/04/30 01:00:23;;;;;;;8.67;6.43;;;;;;;;;;339081;157;857375;-60
2021/04/30 01:01:25;;;;;;;10.86;6.20;;;;;;;;;;340239;155;858630;-60
2021/04/30 01:02:27;;;;;;;9.79;4.98;;;;;;;;;;340911;155;857608;-60
2021/04/30 01:03:28;;;;;;;7.84;5.69;;;;;;;;;;338185;155;865551;-60
2021/04/30 01:04:30;;;;;;;8.33;5.21;;;;;;;;;;337405;157;858348;-60
2021/04/30 01:05:31;;;;;;;6.54;4.99;;;;;;;;;;341591;155;857368;-60
2021/04/30 01:06:35;;;;;;;10.36;6.03;;;;;;;;;;341056;157;864901;-60
2021/04/30 01:07:36;;;;;;;4.07;3.22;;;;;;;;;;336078;160;857838;-61
2021/04/30 01:08:38;;;;;;;7.01;4.14;;;;;;;;;;334293;158;859326;-60
2021/04/30 01:09:39;;;;;;;11.04;5.39;;;;;;;;;;334382;155;860177;-60
2021/04/30 01:10:43;;;;;;;9.63;5.97;;;;;;;;;;339389;157;859646;-60
2021/04/30 01:11:44;;;;;;;9.31;5.64;;;;;;;;;;340346;155;859591;-60
2021/04/30 01:12:46;;;;;;;7.27;5.80;;;;;;;;;;342248;157;857862;-60
2021/04/30 01:13:48;;;;;;;7.35;6.04;;;;;;;;;;339182;157;866951;-60
2021/04/30 01:14:50;;;;;;;8.81;6.15;;;;;;;;;;341729;155;857358;-60
2021/04/30 01:15:51;;;;;;;9.59;6.44;;;;;;;;;;342686;155;860098;-60
2021/04/30 01:16:53;;;;;;;8.13;5.39;;;;;;;;;;341085;157;864976;-61
2021/04/30 01:17:54;;;;;;;8.91;5.72;;;;;;;;;;332608;158;864806;-60
2021/04/30 01:18:56;;;;;;;11.09;6.26;;;;;;;;;;332710;159;859382;-61
2021/04/30 01:19:58;;;;;;;7.43;4.81;;;;;;;;;;332064;159;858280;-61
2021/04/30 01:20:59;;;;;;;7.40;5.52;;;;;;;;;;336534;155;857517;-61
2021/04/30 01:22:01;;;;;;;8.25;5.63;;;;;;;;;;336719;157;866498;-61
2021/04/30 01:23:03;;;;;;;9.86;5.54;;;;;;;;;;341393;155;866138;-61
2021/04/30 01:24:05;;;;;;;7.26;4.76;;;;;;;;;;341167;157;858725;-61
2021/04/30 01:25:08;;;;;;;6.95;4.43;;;;;;;;;;340450;157;864891;-61
2021/04/30 01:26:11;;;;;;;9.00;6.09;;;;;;;;;;339621;155;859052;-61
2021/04/30 01:27:12;;;;;;;7.60;5.82;;;;;;;;;;338288;155;859614;-61
2021/04/30 01:28:14;;;;;;;10.26;6.27;;;;;;;;;;341671;155;857599;-60
2021/04/30 01:29:15;;;;;;;6.58;5.74;;;;;;;;;;342409;157;865222;-60
2021/04/30 01:30:19;;;;;;;11.38;6.80;;;;;;;;;;340749;155;857415;-60
2021/04/30 01:31:22;;;;;;;9.03;6.82;;;;;;;;;;341400;157;858079;-60
2021/04/30 01:32:24;;;;;;;8.96;6.29;;;;;;;;;;340647;155;859045;-60
2021/04/30 01:33:25;;;;;;;8.45;6.06;;;;;;;;;;340261;157;859626;-60
2021/04/30 01:34:27;;;;;;;8.76;5.60;;;;;;;;;;342051;155;865042;-61
2021/04/30 01:35:32;;;;;;;9.86;6.18;;;;;;;;;;342431;157;860075;-61
2021/04/30 01:36:34;;;;;;;8.41;5.86;;;;;;;;;;338284;155;859080;-61
2021/04/30 01:37:36;;;;;;;10.48;6.28;;;;;;;;;;341339;157;857364;-60
2021/04/30 01:38:37;;;;;;;7.94;5.95;;;;;;;;;;341113;157;865205;-61
2021/04/30 01:39:39;;;;;;;9.66;5.12;;;;;;;;;;337407;155;857453;-61
2021/04/30 01:40:41;;;;;;;6.81;4.77;;;;;;;;;;337809;157;857370;-61
2021/04/30 01:41:43;;;;;;;9.66;7.27;;;;;;;;;;341281;157;857378;-61
2021/04/30 01:43:05;;;;;;;10.60;5.86;;;;;;;;;;335290;157;857566;-61
2021/04/30 01:44:08;;;;;;;10.44;6.50;;;;;;;;;;338861;157;864966;-61
2021/04/30 01:45:10;;;;;;;8.68;5.94;;;;;;;;;;340879;155;857350;-61
2021/04/30 01:46:13;;;;;;;8.98;6.49;;;;;;;;;;341271;157;865602;-61
2021/04/30 01:47:14;;;;;;;10.81;6.73;;;;;;;;;;340571;155;859479;-61
2021/04/30 01:48:16;;;;;;;8.44;6.44;;;;;;;;;;340613;155;865296;-61
2021/04/30 01:49:17;;;;;;;10.67;6.31;;;;;;;;;;341296;157;865302;-61
2021/04/30 01:50:21;;;;;;;9.52;6.39;;;;;;;;;;339704;155;865175;-60
2021/04/30 01:51:22;;;;;;;8.29;6.37;;;;;;;;;;341627;157;858265;-60
2021/04/30 01:52:24;;;;;;;8.04;5.79;;;;;;;;;;341022;155;857764;-60
2021/04/30 01:53:26;;;;;;;9.06;5.93;;;;;;;;;;341339;155;858983;-60
2021/04/30 01:54:28;;;;;;;8.30;5.53;;;;;;;;;;340476;157;858724;-60
2021/04/30 01:55:29;;;;;;;8.34;6.29;;;;;;;;;;342107;155;857580;-59
2021/04/30 01:56:32;;;;;;;13.39;6.89;;;;;;;;;;341243;157;866555;-59
2021/04/30 01:57:36;;;;;;;7.87;5.27;;;;;;;;;;341793;157;860511;-60
2021/04/30 01:58:38;;;;;;;11.14;6.14;;;;;;;;;;341332;155;860169;-60
2021/04/30 01:59:39;;;;;;;10.79;7.13;;;;;;;;;;339689;157;859719;-60
2021/04/30 02:00:41;;;;;;;8.85;6.84;;;;;;;;;;340641;155;860314;-60
2021/04/30 02:01:43;;;;;;;15.89;8.23;;;;;;;;;;341332;155;864979;-60
2021/04/30 02:02:45;;;;;;;9.02;5.98;;;;;;;;;;341889;157;857260;-62
2021/04/30 02:03:47;;;;;;;7.89;5.70;;;;;;;;;;342422;149;857353;-61
2021/04/30 02:04:48;;;;;;;8.09;6.49;;;;;;;;;;349046;150;857248;-60
2021/04/30 02:05:50;;;;;;;11.42;6.99;;;;;;;;;;354045;148;865221;-61
2021/04/30 02:06:51;;;;;;;10.64;6.21;;;;;;;;;;356779;149;859866;-61
2021/04/30 02:07:53;;;;;;;9.38;6.43;;;;;;;;;;355761;149;865081;-61
2021/04/30 02:08:56;;;;;;;11.86;6.90;;;;;;;;;;357635;149;857329;-61
2021/04/30 02:09:57;;;;;;;10.13;6.56;;;;;;;;;;354330;149;865246;-61
2021/04/30 02:10:59;;;;;;;8.82;5.69;;;;;;;;;;356654;148;859323;-60
2021/04/30 02:12:02;;;;;;;11.51;7.04;;;;;;;;;;359793;149;865106;-61
2021/04/30 02:13:04;;;;;;;9.33;6.49;;;;;;;;;;355418;148;859484;-61
2021/04/30 02:14:06;;;;;;;6.76;5.90;;;;;;;;;;358108;149;857414;-62
2021/04/30 02:15:11;;;;;;;7.11;5.19;;;;;;;;;;359573;148;865017;-61
2021/04/30 02:16:14;;;;;;;10.03;4.98;;;;;;;;;;355658;149;859630;-62
2021/04/30 02:17:16;;;;;;;10.51;5.58;;;;;;;;;;360529;149;857476;-62
2021/04/30 02:18:18;;;;;;;9.31;6.24;;;;;;;;;;357163;148;865180;-61
2021/04/30 02:19:19;;;;;;;9.96;6.71;;;;;;;;;;354991;149;857345;-62
2021/04/30 02:20:21;;;;;;;9.53;6.53;;;;;;;;;;355948;149;864242;-61
2021/04/30 02:21:23;;;;;;;11.88;6.74;;;;;;;;;;357810;147;859963;-62
2021/04/30 02:22:24;;;;;;;11.61;6.79;;;;;;;;;;360567;149;865775;-61
2021/04/30 02:23:26;;;;;;;9.92;6.41;;;;;;;;;;356122;148;857922;-61
2021/04/30 02:24:28;;;;;;;7.86;6.20;;;;;;;;;;356772;149;864986;-61
2021/04/30 02:25:29;;;;;;;8.65;6.19;;;;;;;;;;360486;149;858923;-62
2021/04/30 02:26:32;;;;;;;8.91;6.58;;;;;;;;;;356170;147;859203;-62
2021/04/30 02:27:34;;;;;;;8.20;6.71;;;;;;;;;;359107;149;857471;-60
2021/04/30 02:28:36;;;;;;;8.71;5.63;;;;;;;;;;358397;149;861233;-62
2021/04/30 02:29:37;;;;;;;9.19;5.76;;;;;;;;;;355888;149;857447;-61
2021/04/30 02:30:39;;;;;;;11.29;6.27;;;;;;;;;;360426;148;859486;-60
2021/04/30 02:31:41;;;;;;;7.67;5.84;;;;;;;;;;359472;148;857294;-62
2021/04/30 02:32:43;;;;;;;7.79;5.84;;;;;;;;;;356532;149;864878;-62
2021/04/30 02:33:44;;;;;;;9.21;5.65;;;;;;;;;;357733;149;858055;-62
2021/04/30 02:34:46;;;;;;;9.73;6.23;;;;;;;;;;357130;148;865057;-61
2021/04/30 02:35:48;;;;;;;7.74;6.10;;;;;;;;;;356978;149;857321;-61
2021/04/30 02:36:49;;;;;;;8.49;6.54;;;;;;;;;;355908;148;864856;-63
2021/04/30 02:37:51;;;;;;;9.47;6.71;;;;;;;;;;356913;148;857246;-62
2021/04/30 02:38:53;;;;;;;10.27;6.64;;;;;;;;;;356271;148;865096;-61
2021/04/30 02:39:54;;;;;;;7.84;5.90;;;;;;;;;;358418;149;857390;-62
2021/04/30 02:40:57;;;;;;;11.24;6.36;;;;;;;;;;355514;148;857283;-60
2021/04/30 02:41:59;;;;;;;12.60;5.68;;;;;;;;;;357713;148;865074;-60
2021/04/30 02:43:01;;;;;;;11.11;6.71;;;;;;;;;;356431;149;858752;-63
2021/04/30 02:44:04;;;;;;;8.49;6.35;;;;;;;;;;356725;148;857411;-60
2021/04/30 02:45:06;;;;;;;8.46;5.86;;;;;;;;;;360470;149;857572;-61
2021/04/30 02:46:09;;;;;;;9.45;6.99;;;;;;;;;;357923;148;858699;-61
2021/04/30 02:47:11;;;;;;;10.80;6.59;;;;;;;;;;360401;149;858710;-61
2021/04/30 02:48:14;;;;;;;9.31;6.51;;;;;;;;;;357346;148;865198;-62
2021/04/30 02:49:24;;;;;;;9.96;6.20;;;;;;;;;;355522;149;857392;-61
2021/04/30 02:50:22;;;;;;;7.84;6.15;;;;;;;;;;357287;149;857546;-61
2021/04/30 02:51:24;;;;;;;8.28;6.29;;;;;;;;;;357704;148;857811;-61
2021/04/30 02:52:25;;;;;;;10.60;6.78;;;;;;;;;;357937;149;857426;-61
2021/04/30 02:53:27;;;;;;;7.27;5.24;;;;;;;;;;356276;149;858737;-61
2021/04/30 02:54:28;;;;;;;11.52;6.87;;;;;;;;;;356315;148;864846;-61
2021/04/30 02:55:30;;;;;;;9.99;6.70;;;;;;;;;;357674;149;857379;-61
2021/04/30 02:56:33;;;;;;;8.81;6.29;;;;;;;;;;359638;148;866903;-61
2021/04/30 02:57:35;;;;;;;8.95;5.87;;;;;;;;;;359550;148;857450;-61
2021/04/30 02:58:36;;;;;;;9.79;6.03;;;;;;;;;;359689;149;858089;-61
2021/04/30 02:59:38;;;;;;;6.66;5.85;;;;;;;;;;357115;148;857681;-61
2021/04/30 03:00:41;;;;;;;8.25;6.73;;;;;;;;;;359773;149;859373;-61
2021/04/30 03:01:42;;;;;;;11.19;7.21;;;;;;;;;;354216;151;858618;-61
2021/04/30 03:02:44;;;;;;;8.02;4.91;;;;;;;;;;356289;149;858874;-62
2021/04/30 03:03:46;;;;;;;8.44;5.74;;;;;;;;;;355809;149;857464;-60
2021/04/30 03:04:47;;;;;;;15.66;6.14;;;;;;;;;;357180;148;857499;-61
2021/04/30 03:05:49;;;;;;;9.44;5.83;;;;;;;;;;352404;150;865079;-61
2021/04/30 03:06:50;;;;;;;9.06;6.52;;;;;;;;;;352211;152;857470;-61
2021/04/30 03:07:53;;;;;;;8.25;5.89;;;;;;;;;;352377;150;866859;-61
2021/04/30 03:08:55;;;;;;;9.65;5.55;;;;;;;;;;353548;150;859012;-61
2021/04/30 03:10:00;;;;;;;11.87;6.93;;;;;;;;;;345735;155;859753;-60
2021/04/30 03:11:01;;;;;;;8.59;5.95;;;;;;;;;;345682;153;858212;-61
2021/04/30 03:12:03;;;;;;;9.60;6.71;;;;;;;;;;350244;149;859022;-61
2021/04/30 03:13:05;;;;;;;7.89;4.88;;;;;;;;;;348835;152;859240;-60
2021/04/30 03:14:06;;;;;;;7.88;5.67;;;;;;;;;;353442;150;859489;-60
2021/04/30 03:15:10;;;;;;;11.12;6.60;;;;;;;;;;353502;150;865468;-62
2021/04/30 03:16:12;;;;;;;7.76;4.45;;;;;;;;;;350676;152;857569;-60
2021/04/30 03:17:14;;;;;;;7.41;5.34;;;;;;;;;;352945;151;859364;-61
2021/04/30 03:18:15;;;;;;;7.33;5.17;;;;;;;;;;352678;150;858522;-60
2021/04/30 03:19:17;;;;;;;8.04;6.31;;;;;;;;;;351924;149;857950;-60
2021/04/30 03:20:20;;;;;;;9.79;6.07;;;;;;;;;;351985;150;865145;-60
2021/04/30 03:21:22;;;;;;;8.47;5.45;;;;;;;;;;352341;150;857322;-60
2021/04/30 03:22:23;;;;;;;8.98;6.14;;;;;;;;;;352645;152;859612;-60
2021/04/30 03:23:25;;;;;;;6.99;5.74;;;;;;;;;;352967;150;864954;-62
2021/04/30 03:24:27;;;;;;;8.03;5.30;;;;;;;;;;353760;150;865058;-63
2021/04/30 03:25:28;;;;;;;7.17;5.65;;;;;;;;;;353649;150;864944;-60
2021/04/30 03:26:30;;;;;;;9.58;6.15;;;;;;;;;;353007;150;857216;-60
2021/04/30 03:27:32;;;;;;;9.29;6.07;;;;;;;;;;353406;152;859246;-60
2021/04/30 03:28:33;;;;;;;8.16;5.48;;;;;;;;;;352652;149;865091;-61
2021/04/30 03:29:35;;;;;;;8.04;6.21;;;;;;;;;;353310;150;857360;-60
2021/04/30 03:30:37;;;;;;;7.64;6.05;;;;;;;;;;353349;150;858594;-60
2021/04/30 03:31:38;;;;;;;7.35;5.84;;;;;;;;;;351750;150;857464;-60
2021/04/30 03:32:40;;;;;;;7.84;5.74;;;;;;;;;;353647;152;859069;-60
2021/04/30 03:33:41;;;;;;;8.66;5.14;;;;;;;;;;352243;152;857991;-61
2021/04/30 03:34:43;;;;;;;9.62;5.56;;;;;;;;;;351838;149;858804;-60
2021/04/30 03:35:45;;;;;;;8.33;5.74;;;;;;;;;;351210;152;859074;-62
2021/04/30 03:36:46;;;;;;;9.71;5.46;;;;;;;;;;350085;152;860560;-61
2021/04/30 03:37:48;;;;;;;11.80;5.79;;;;;;;;;;353494;151;865008;-61
2021/04/30 03:38:49;;;;;;;7.38;5.50;;;;;;;;;;353047;152;857265;-61
2021/04/30 03:39:51;;;;;;;10.31;5.28;;;;;;;;;;351486;150;857279;-60
2021/04/30 03:40:53;;;;;;;6.78;5.26;;;;;;;;;;353601;151;865109;-61
2021/04/30 03:41:54;;;;;;;10.14;6.05;;;;;;;;;;342205;152;864915;-61
2021/04/30 03:42:56;;;;;;;11.26;5.22;;;;;;;;;;324776;163;865048;-60
2021/04/30 03:43:58;;;;;;;6.64;5.30;;;;;;;;;;325986;163;859190;-60
2021/04/30 03:44:59;;;;;;;6.01;5.18;;;;;;;;;;327839;163;866060;-61
2021/04/30 03:46:01;;;;;;;5.59;4.20;;;;;;;;;;328523;161;864717;-60
2021/04/30 03:47:03;;;;;;;6.95;4.92;;;;;;;;;;327615;164;857429;-61
2021/04/30 03:48:05;;;;;;;7.35;5.75;;;;;;;;;;328238;161;857352;-61
2021/04/30 03:49:07;;;;;;;6.49;5.34;;;;;;;;;;329403;161;857987;-61
2021/04/30 03:50:09;;;;;;;7.74;5.65;;;;;;;;;;327533;164;864794;-61
2021/04/30 03:51:11;;;;;;;7.41;5.01;;;;;;;;;;327679;161;858145;-61
2021/04/30 03:52:12;;;;;;;6.45;4.42;;;;;;;;;;328401;161;857428;-62
2021/04/30 03:53:14;;;;;;;6.92;4.76;;;;;;;;;;328994;161;859305;-62
2021/04/30 03:54:16;;;;;;;7.47;5.01;;;;;;;;;;328553;161;859579;-62
2021/04/30 04:12:48;;;;;;;7.24;4.50;;;;;;;13.42;52.95;99415.17;371628;142;874809;-60
2021/04/30 04:13:50;;;;;;;5.52;3.41;;;;;;;13.36;52.87;99420.52;362632;147;857715;-60
2021/04/30 04:14:51;;;;;;;7.79;4.06;;;;;;;13.34;53.00;99419.70;364668;146;858600;-61
2021/04/30 04:15:54;;;;;;;4.35;3.51;;;;;;;;;;362349;144;865337;-61
2021/04/30 04:16:56;;;;;;;4.67;3.45;;;;;;;;;;362809;146;865931;-61
2021/04/30 04:17:57;;;;;;;7.25;4.14;;;;;;;;;;361475;146;866485;-61
2021/04/30 04:18:59;;;;;;;7.66;4.38;;;;;;;;;;363442;146;860638;-61
2021/04/30 04:20:00;;;;;;;6.56;4.01;;;;;;;;;;364148;146;857245;-61
2021/04/30 04:21:02;;;;;;;6.11;4.17;;;;;;;;;;364588;144;857392;-61
2021/04/30 04:22:04;;;;;;;8.53;5.11;;;;;;;;;;365415;146;857278;-61
2021/04/30 04:23:06;;;;;;;9.41;4.81;;;;;;;;;;364649;146;859152;-61
2021/04/30 04:24:08;;;;;;;4.78;3.44;;;;;;;;;;364496;146;860267;-61
2021/04/30 04:25:09;;;;;;;8.70;4.34;;;;;;;;;;365339;146;864787;-61
2021/04/30 04:26:11;;;;;;;6.17;4.47;;;;;;;;;;362891;146;860665;-61
2021/04/30 04:27:13;;;;;;;5.29;3.43;;;;;;;;;;351918;144;857871;-60
2021/04/30 04:28:15;;;;;;;7.43;3.36;;;;;;;;;;330292;153;884942;-60
2021/04/30 04:29:16;;;;;;;9.55;4.83;;;;;;;;;;341893;152;858026;-61
2021/04/30 04:30:18;;;;;;;4.48;2.93;;;;;;;;;;348225;151;858765;-61
2021/04/30 04:31:20;;;;;;;7.27;4.09;;;;;;;;;;348638;153;857494;-62
2021/04/30 04:32:22;;;;;;;5.04;4.01;;;;;;;;;;349463;150;864827;-62
2021/04/30 04:33:23;;;;;;;4.54;3.17;;;;;;;;;;346926;151;857283;-61
2021/04/30 04:34:25;;;;;;;6.72;4.21;;;;;;;;;;350377;153;857178;-61
2021/04/30 04:35:26;;;;;;;5.85;3.46;;;;;;;;;;349338;150;859538;-61
2021/04/30 04:36:29;;;;;;;5.56;3.96;;;;;;;;;;349958;153;858136;-61
2021/04/30 04:37:30;;;;;;;4.37;3.16;;;;;;;;;;349262;151;858026;-62
2021/04/30 04:38:32;;;;;;;4.68;3.08;;;;;;;;;;350257;150;866030;-61
2021/04/30 04:39:34;;;;;;;5.71;3.77;;;;;;;;;;350564;151;864855;-61
2021/04/30 04:40:37;;;;;;;6.81;3.71;;;;;;;;;;346700;151;857302;-61
2021/04/30 04:41:39;;;;;;;5.94;3.79;;;;;;;;;;349914;150;859594;-61
2021/04/30 04:42:40;;;;;;;5.71;4.08;;;;;;;;;;348669;153;858192;-62
2021/04/30 04:43:42;;;;;;;8.73;4.55;;;;;;;;;;352565;151;857445;-61
2021/04/30 04:44:44;;;;;;;5.01;4.08;;;;;;;;;;347393;150;857428;-61
2021/04/30 04:45:45;;;;;;;7.97;4.11;;;;;;;;;;350163;153;857409;-62
2021/04/30 04:46:48;;;;;;;8.21;4.78;;;;;;;;;;350526;150;857292;-61
2021/04/30 04:47:50;;;;;;;6.81;4.33;;;;;;;;;;350963;151;864853;-61
2021/04/30 04:48:51;;;;;;;6.94;3.65;;;;;;;;;;350146;153;857763;-61
2021/04/30 04:49:53;;;;;;;4.77;3.53;;;;;;;;;;351314;151;866739;-62
2021/04/30 04:50:55;;;;;;;4.94;3.69;;;;;;;;;;348690;153;865943;-61
2021/04/30 04:51:57;;;;;;;5.79;4.16;;;;;;;;;;349536;153;867125;-62
2021/04/30 04:52:59;;;;;;;4.71;4.03;;;;;;;;;;350909;150;859275;-61
2021/04/30 04:54:01;;;;;;;5.01;3.54;;;;;;;;;;349447;153;865773;-61
2021/04/30 04:55:03;;;;;;;6.32;3.79;;;;;;;;;;350546;151;858749;-61
2021/04/30 04:56:04;;;;;;;5.23;3.85;;;;;;;;;;349027;150;857879;-61
2021/04/30 04:57:06;;;;;;;5.56;3.36;;;;;;;;;;349458;153;859256;-62
2021/04/30 04:58:08;;;;;;;4.74;3.25;;;;;;;;;;349463;151;859043;-61
2021/04/30 04:59:09;;;;;;;8.25;4.02;;;;;;;;;;348652;150;864839;-62
2021/04/30 05:00:12;;;;;;;4.73;3.51;;;;;;;;;;347934;151;857421;-62
2021/04/30 05:01:14;;;;;;;6.16;3.47;;;;;;;;;;347311;151;857477;-62
2021/04/30 05:02:16;;;;;;;5.01;3.07;;;;;;;;;;347811;150;859268;-62
2021/04/30 05:03:17;;;;;;;6.93;3.83;;;;;;;;;;348510;153;857497;-62
2021/04/30 05:04:19;;;;;;;8.69;4.51;;;;;;;;;;350518;151;857381;-62
2021/04/30 05:05:21;;;;;;;7.29;3.85;;;;;;;;;;349566;150;865052;-62
2021/04/30 05:06:24;;;;;;;7.61;4.40;;;;;;;;;;347284;153;857307;-63
2021/04/30 05:07:26;;;;;;;6.23;3.88;;;;;;;;;;349943;150;857328;-62
2021/04/30 05:08:27;;;;;;;16.64;4.61;;;;;;;;;;346168;153;859611;-62
2021/04/30 05:09:29;;;;;;;5.32;3.19;;;;;;;;;;348092;153;859393;-62
2021/04/30 05:10:31;;;;;;;4.63;3.50;;;;;;;;;;345937;153;859343;-62
2021/04/30 05:11:33;;;;;;;7.79;4.52;;;;;;;;;;343931;153;860246;-62
2021/04/30 05:12:34;;;;;;;6.26;4.17;;;;;;;;;;346672;153;865401;-61
2021/04/30 05:13:36;;;;;;;5.76;3.36;;;;;;;;;;345416;153;857687;-62
2021/04/30 05:14:38;;;;;;;6.40;3.63;;;;;;;;;;344793;154;857827;-61
2021/04/30 05:15:39;;;;;;;6.78;4.63;;;;;;;;;;344824;153;858869;-62
2021/04/30 05:16:41;;;;;;;5.53;3.09;;;;;;;;;;345492;153;865552;-61
2021/04/30 05:17:43;;;;;;;4.55;3.09;;;;;;;;;;344696;154;859744;-62
2021/04/30 05:18:45;;;;;;;6.84;4.07;;;;;;;;;;342480;153;864940;-61
2021/04/30 05:19:46;;;;;;;7.04;4.20;;;;;;;;;;346585;153;857237;-61
2021/04/30 05:20:49;;;;;;;4.49;3.47;;;;;;;;;;347038;155;864770;-61
2021/04/30 05:21:50;;;;;;;6.29;4.34;;;;;;;;;;345279;153;857404;-62
2021/04/30 05:22:52;;;;;;;6.13;4.41;;;;;;;;;;342476;154;857408;-62
2021/04/30 05:23:57;;;;;;;5.87;3.39;;;;;;;;;;345143;155;857367;-62
2021/04/30 05:24:57;;;;;;;11.23;4.71;;;;;;;;;;345885;153;857497;-62
2021/04/30 05:25:59;;;;;;;7.31;4.47;;;;;;;;;;344842;156;865593;-62
2021/04/30 05:27:02;;;;;;;10.42;3.38;;;;;;;;;;344981;153;866910;-62
2021/04/30 05:28:04;;;;;;;7.43;4.57;;;;;;;;;;345516;153;866132;-62
2021/04/30 05:29:06;;;;;;;9.11;4.10;;;;;;;;;;343424;156;857361;-63
2021/04/30 05:30:09;;;;;;;5.73;3.78;;;;;;;;;;344779;153;858906;-62
2021/04/30 05:31:10;;;;;;;7.28;4.07;;;;;;;;;;343171;155;864866;-62
2021/04/30 05:32:12;;;;;;;6.49;3.78;;;;;;;;;;343864;153;858850;-61
2021/04/30 05:33:14;;;;;;;7.27;4.34;;;;;;;;;;343875;153;864940;-59
2021/04/30 05:34:15;;;;;;;3.47;2.81;;;;;;;;;;343232;154;865102;-60
2021/04/30 05:35:17;;;;;;;6.36;4.08;;;;;;;;;;344097;154;857419;-63
2021/04/30 05:36:20;;;;;;;6.84;4.21;;;;;;;;;;343458;153;866765;-61
2021/04/30 05:37:22;;;;;;;7.67;4.34;;;;;;;;;;342990;155;857333;-61
2021/04/30 05:38:24;;;;;;;5.92;3.94;;;;;;;;;;332779;155;860323;-61
2021/04/30 05:39:25;;;;;;;5.51;4.39;;;;;;;;;;335892;158;864730;-63
2021/04/30 05:40:27;;;;;;;5.21;3.49;;;;;;;;;;335739;158;860719;-62
2021/04/30 05:41:29;;;;;;;5.54;4.17;;;;;;;;;;335820;158;857338;-62
2021/04/30 05:42:31;;;;;;;6.49;3.90;;;;;;;;;;335524;158;864873;-61
2021/04/30 05:43:32;;;;;;;5.71;3.73;;;;;;;;;;336154;158;864913;-62
2021/04/30 05:44:34;;;;;;;6.79;4.09;;;;;;;;;;336639;158;866538;-61
2021/04/30 05:45:35;;;;;;;7.14;4.21;;;;;;;;;;334425;158;864926;-61
2021/04/30 05:46:37;;;;;;;6.45;2.94;;;;;;;;;;334130;159;857405;-62
2021/04/30 05:47:39;;;;;;;6.22;3.96;;;;;;;;;;334389;158;857375;-61
2021/04/30 05:48:40;;;;;;;5.62;3.58;;;;;;;;;;335754;158;857334;-62
2021/04/30 05:49:42;;;;;;;7.08;4.20;;;;;;;;;;336702;158;857827;-61
2021/04/30 05:50:44;;;;;;;4.87;3.64;;;;;;;;;;335799;158;865866;-61
2021/04/30 05:51:45;;;;;;;6.14;3.80;;;;;;;;;;338978;158;858296;-61
2021/04/30 05:52:47;;;;;;;8.63;4.44;;;;;;;;;;336911;158;857565;-61
2021/04/30 05:53:49;;;;;;;7.81;3.75;;;;;;;;;;336090;157;857050;-61
2021/04/30 05:54:52;;;;;;;5.24;3.79;;;;;;;;;;338543;159;857190;-61
2021/04/30 05:55:53;;;;;;;5.98;3.65;;;;;;;;;;338892;158;858645;-62
2021/04/30 05:56:55;;;;;;;9.98;5.18;;;;;;;;;;335023;158;866667;-61
2021/04/30 05:57:57;;;;;;;6.76;4.34;;;;;;;;;;335186;160;858755;-61
2021/04/30 05:58:58;;;;;;;7.31;4.06;;;;;;;;;;334762;158;865406;-60
2021/04/30 06:00:00;;;;;;;9.02;4.16;;;;;;;;;;337764;158;857418;-61
2021/04/30 06:01:02;;;;;;;7.00;4.02;;;;;;;;;;337512;158;866678;-61
2021/04/30 06:02:03;;;;;;;7.49;5.08;;;;;;;;;;335430;158;859101;-61
2021/04/30 06:03:05;;;;;;;6.17;4.67;;;;;;;;;;335674;158;865240;-62
2021/04/30 06:04:06;;;;;;;5.71;3.66;;;;;;;;;;333171;160;865439;-61
2021/04/30 06:05:08;;;;;;;6.46;4.10;;;;;;;;;;335386;158;859198;-62
2021/04/30 06:06:11;;;;;;;5.76;3.63;;;;;;;;;;335666;158;857647;-61
2021/04/30 06:07:12;;;;;;;5.24;3.75;;;;;;;;;;334643;158;858948;-62
2021/04/30 06:08:14;;;;;;;9.22;5.28;;;;;;;;;;334672;158;858463;-62
2021/04/30 06:09:16;;;;;;;5.35;3.62;;;;;;;;;;334895;158;857407;-61
2021/04/30 06:10:19;;;;;;;11.14;4.21;;;;;;;;;;336967;158;857962;-61
2021/04/30 06:11:21;;;;;;;6.20;3.33;;;;;;;;;;336519;158;857905;-61
2021/04/30 06:12:22;;;;;;;6.24;4.24;;;;;;;;;;335138;158;857710;-61
2021/04/30 06:13:24;;;;;;;8.15;4.46;;;;;;;;;;337509;155;857594;-62
2021/04/30 06:14:30;;;;;;;9.48;4.66;;;;;;;;;;340855;155;856983;-62
2021/04/30 06:15:30;;;;;;;11.18;5.05;;;;;;;;;;336331;157;863930;-61
2021/04/30 06:16:32;;;;;;;7.21;4.59;;;;;;;;;;336824;156;857209;-60
2021/04/30 06:17:34;;;;;;;7.33;5.60;;;;;;;;;;336875;157;856365;-62
2021/04/30 06:18:36;;;;;;;6.21;3.94;;;;;;;;;;337489;158;856198;-62
2021/04/30 06:19:38;;;;;;;8.67;5.18;;;;;;;;;;341114;155;856270;-61
2021/04/30 06:20:41;;;;;;;8.57;4.37;;;;;;;;;;340429;155;856471;-61
2021/04/30 06:21:42;;;;;;;9.85;5.56;;;;;;;;;;340687;155;863979;-61